createdAt,value
2023-02-23T00:01:54.766Z,43.20
2023-02-23T00:04:21.916Z,44.63
2023-02-23T00:06:48.633Z,47.45
2023-02-23T00:09:24.847Z,46.10
2023-02-23T00:11:54.308Z,48.25
2023-02-23T00:14:24.666Z,44.97
2023-02-23T00:16:51.426Z,44.75
2023-02-23T00:19:18.221Z,52.38
2023-02-23T00:21:45.538Z,49.65
2023-02-23T00:24:15.736Z,48.55
2023-02-23T00:26:42.836Z,45.38
2023-02-23T00:29:16.761Z,49.78
2023-02-23T00:31:47.816Z,48.05
2023-02-23T00:34:17.136Z,50.03
2023-02-23T00:36:44.055Z,51.70
2023-02-23T00:39:29.324Z,50.72
2023-02-23T00:41:57.368Z,53.22
2023-02-23T00:44:25.169Z,54.70
2023-02-23T00:46:52.944Z,57.17
2023-02-23T00:49:22.136Z,56.53
2023-02-23T00:51:49.078Z,59.15
2023-02-23T00:54:17.176Z,58.65
2023-02-23T00:56:44.774Z,59.50
2023-02-23T00:59:12.644Z,61.85
2023-02-23T01:01:41.821Z,60.67
2023-02-23T01:04:09.736Z,67.03
2023-02-23T01:06:39.720Z,62.50
2023-02-23T01:09:16.220Z,62.53
2023-02-23T01:11:46.815Z,60.72
2023-02-23T01:14:13.757Z,64.13
2023-02-23T01:16:40.680Z,60.63
2023-02-23T01:19:07.786Z,65.10
2023-02-23T01:21:37.348Z,61.72
2023-02-23T01:24:04.597Z,71.18
2023-02-23T01:26:36.661Z,68.53
2023-02-23T01:29:09.205Z,63.70
2023-02-23T01:31:38.146Z,70.38
2023-02-23T01:34:06.230Z,62.50
2023-02-23T01:36:36.530Z,64.15
2023-02-23T01:39:06.795Z,66.15
2023-02-23T01:41:37.357Z,60.60
2023-02-23T01:44:07.091Z,66.95
2023-02-23T01:46:36.679Z,64.70
2023-02-23T01:49:04.526Z,66.22
2023-02-23T01:51:37.185Z,65.05
2023-02-23T01:54:16.078Z,68.22
2023-02-23T01:56:49.304Z,64.00
2023-02-23T01:59:17.987Z,69.72
2023-02-23T02:01:45.583Z,59.75
2023-02-23T02:04:16.850Z,66.22
2023-02-23T02:06:47.157Z,68.03
2023-02-23T02:09:17.550Z,71.82
2023-02-23T02:11:46.548Z,61.95
2023-02-23T02:14:21.039Z,65.88
2023-02-23T02:17:06.098Z,59.55
2023-02-23T02:20:15.004Z,64.22
2023-02-23T02:23:00.452Z,69.95
2023-02-23T02:25:33.291Z,63.20
2023-02-23T02:28:41.330Z,64.25
2023-02-23T02:31:24.985Z,64.38
2023-02-23T02:34:20.026Z,62.63
2023-02-23T02:37:21.168Z,64.72
2023-02-23T02:40:26.578Z,64.55
2023-02-23T02:43:21.430Z,65.75
2023-02-23T02:45:55.209Z,62.22
2023-02-23T02:48:38.718Z,63.80
2023-02-23T02:51:46.956Z,62.03
2023-02-23T02:54:33.090Z,69.07
2023-02-23T02:57:04.401Z,65.15
2023-02-23T02:59:50.216Z,63.00
2023-02-23T03:02:39.752Z,61.78
2023-02-23T03:05:36.010Z,66.22
2023-02-23T03:08:39.656Z,60.67
2023-02-23T03:11:34.846Z,68.85
2023-02-23T03:15:00.780Z,61.75
2023-02-23T03:18:00.910Z,62.78
2023-02-23T03:21:12.763Z,66.35
2023-02-23T03:24:20.320Z,65.75
2023-02-23T03:27:17.868Z,65.70
2023-02-23T03:30:17.059Z,65.40
2023-02-23T03:33:10.077Z,69.05
2023-02-23T03:36:14.100Z,64.63
2023-02-23T03:39:08.066Z,67.65
2023-02-23T03:41:56.918Z,64.97
2023-02-23T03:44:51.901Z,66.22
2023-02-23T03:47:47.967Z,62.75
2023-02-23T03:50:51.267Z,67.28
2023-02-23T03:53:46.062Z,64.53
2023-02-23T03:56:35.524Z,61.00
2023-02-23T03:59:24.751Z,62.30
2023-02-23T04:02:14.061Z,66.50
2023-02-23T04:05:01.751Z,62.75
2023-02-23T04:07:47.843Z,63.05
2023-02-23T04:10:33.204Z,59.45
2023-02-23T04:13:19.911Z,65.82
2023-02-23T04:15:55.815Z,65.18
2023-02-23T04:18:28.616Z,63.40
2023-02-23T04:20:57.077Z,64.43
2023-02-23T04:23:24.479Z,62.00
2023-02-23T04:25:52.530Z,63.38
2023-02-23T04:28:23.867Z,64.93
2023-02-23T04:30:52.466Z,61.85
2023-02-23T04:33:21.686Z,63.95
2023-02-23T04:35:49.256Z,59.28
2023-02-23T04:38:15.973Z,64.00
2023-02-23T04:40:42.945Z,63.40
2023-02-23T04:43:12.665Z,65.05
2023-02-23T04:45:39.447Z,66.10
2023-02-23T04:48:06.672Z,66.30
2023-02-23T04:50:33.683Z,67.68
2023-02-23T04:53:00.432Z,60.60
2023-02-23T04:55:27.433Z,59.90
2023-02-23T04:57:59.238Z,68.07
2023-02-23T05:00:26.908Z,63.78
2023-02-23T05:02:53.807Z,61.25
2023-02-23T05:05:21.618Z,63.92
2023-02-23T05:07:48.507Z,63.30
2023-02-23T05:10:15.196Z,64.80
2023-02-23T05:12:41.986Z,63.70
2023-02-23T05:15:11.090Z,64.93
2023-02-23T05:17:41.298Z,61.92
2023-02-23T05:20:10.814Z,57.35
2023-02-23T05:22:37.911Z,61.83
2023-02-23T05:25:06.505Z,59.95
2023-02-23T05:27:34.547Z,61.08
2023-02-23T05:30:01.657Z,63.03
2023-02-23T05:32:29.628Z,61.45
2023-02-23T05:34:56.758Z,57.00
2023-02-23T05:37:23.820Z,57.00
2023-02-23T05:39:50.678Z,56.17
2023-02-23T05:42:17.533Z,55.10
2023-02-23T05:44:44.413Z,53.28
2023-02-23T05:47:11.096Z,51.95
2023-02-23T05:49:38.577Z,52.75
2023-02-23T05:52:05.773Z,53.40
2023-02-23T05:54:32.533Z,54.38
2023-02-23T05:57:01.726Z,49.90
2023-02-23T05:59:28.912Z,48.88
2023-02-23T06:01:55.667Z,51.88
2023-02-23T06:04:23.427Z,49.47
2023-02-23T06:06:50.329Z,49.65
2023-02-23T06:09:17.137Z,47.47
2023-02-23T06:11:44.735Z,48.90
2023-02-23T06:14:11.641Z,46.28
2023-02-23T06:16:39.438Z,44.58
2023-02-23T06:19:06.375Z,46.38
2023-02-23T06:21:33.774Z,46.35
2023-02-23T06:24:01.021Z,45.70
2023-02-23T06:26:28.300Z,43.65
2023-02-23T06:28:55.633Z,43.35
2023-02-23T06:31:22.461Z,44.67
2023-02-23T06:33:49.664Z,43.88
2023-02-23T06:36:16.575Z,41.08
2023-02-23T06:38:45.033Z,42.90
2023-02-23T06:41:13.110Z,41.65
2023-02-23T06:43:39.975Z,45.42
2023-02-23T06:46:07.010Z,45.22
2023-02-23T06:48:34.062Z,43.55
2023-02-23T06:51:01.168Z,39.92
2023-02-23T06:53:28.078Z,39.75
2023-02-23T06:55:54.828Z,39.13
2023-02-23T06:58:21.617Z,38.67
2023-02-23T07:00:48.374Z,37.05
2023-02-23T07:03:15.110Z,36.70
2023-02-23T07:05:41.867Z,35.75
2023-02-23T07:08:08.604Z,36.17
2023-02-23T07:10:35.413Z,37.38
2023-02-23T07:13:02.171Z,38.22
2023-02-23T07:15:29.098Z,37.25
2023-02-23T07:17:57.226Z,33.15
2023-02-23T07:20:24.074Z,36.10
2023-02-23T07:22:50.941Z,38.35
2023-02-23T07:25:17.857Z,35.42
2023-02-23T07:27:45.368Z,37.80
2023-02-23T07:30:13.019Z,37.85
2023-02-23T07:32:39.894Z,33.58
2023-02-23T07:35:07.227Z,36.75
2023-02-23T07:37:33.972Z,33.55
2023-02-23T07:40:01.443Z,33.95
2023-02-23T07:42:28.429Z,36.35
2023-02-23T07:44:56.121Z,37.17
2023-02-23T07:47:30.469Z,35.17
2023-02-23T07:49:59.122Z,37.65
2023-02-23T07:52:25.890Z,38.65
2023-02-23T07:54:52.944Z,38.00
2023-02-23T07:57:22.407Z,38.63
2023-02-23T07:59:50.295Z,37.35
2023-02-23T08:02:17.059Z,35.63
2023-02-23T08:04:44.128Z,39.58
2023-02-23T08:07:10.977Z,35.50
2023-02-23T08:09:38.447Z,37.13
2023-02-23T08:12:05.596Z,38.15
2023-02-23T08:14:32.492Z,38.50
2023-02-23T08:17:01.720Z,38.35
2023-02-23T08:19:29.707Z,34.15
2023-02-23T08:21:56.986Z,34.05
2023-02-23T08:24:25.214Z,36.17
2023-02-23T08:26:52.466Z,36.83
2023-02-23T08:29:19.392Z,33.65
2023-02-23T08:31:46.358Z,35.38
2023-02-23T08:34:13.473Z,34.00
2023-02-23T08:36:40.654Z,37.65
2023-02-23T08:39:07.711Z,34.75
2023-02-23T08:41:34.772Z,36.63
2023-02-23T08:44:01.466Z,35.97
2023-02-23T08:46:28.533Z,34.60
2023-02-23T08:48:56.690Z,35.95
2023-02-23T08:51:23.754Z,36.05
2023-02-23T08:53:51.395Z,37.20
2023-02-23T08:56:18.210Z,35.00
2023-02-23T08:58:44.875Z,35.78
2023-02-23T09:01:20.255Z,35.90
2023-02-23T09:03:48.232Z,37.55
2023-02-23T09:06:19.201Z,37.60
2023-02-23T09:08:46.692Z,39.50
2023-02-23T09:11:13.524Z,34.40
2023-02-23T09:13:40.145Z,36.67
2023-02-23T09:16:08.054Z,37.35
2023-02-23T09:18:35.331Z,38.65
2023-02-23T09:21:08.671Z,37.45
2023-02-23T09:23:36.575Z,36.17
2023-02-23T09:26:07.664Z,38.45
2023-02-23T09:28:35.963Z,38.35
2023-02-23T09:31:07.980Z,38.47
2023-02-23T09:33:35.123Z,35.78
2023-02-23T09:36:08.446Z,39.80
2023-02-23T09:38:35.257Z,37.85
2023-02-23T09:41:02.031Z,40.78
2023-02-23T09:43:37.216Z,36.38
2023-02-23T09:46:45.780Z,40.28
2023-02-23T09:49:23.178Z,37.17
2023-02-23T09:51:57.608Z,38.20
2023-02-23T09:54:28.000Z,37.40
2023-02-23T09:56:58.302Z,39.50
2023-02-23T09:59:26.035Z,40.15
2023-02-23T10:02:05.696Z,38.55
2023-02-23T10:04:37.950Z,40.13
2023-02-23T10:07:18.456Z,38.92
2023-02-23T10:10:07.135Z,39.05
2023-02-23T10:12:55.288Z,39.83
2023-02-23T10:16:12.533Z,41.63
2023-02-23T10:18:57.287Z,36.85
2023-02-23T10:21:42.294Z,35.22
2023-02-23T10:24:25.510Z,39.10
2023-02-23T10:26:55.317Z,40.50
2023-02-23T10:29:56.003Z,40.55
2023-02-23T10:34:58.361Z,39.08
2023-02-23T10:37:25.932Z,36.95
2023-02-23T10:39:53.464Z,37.63
2023-02-23T10:42:28.889Z,45.65
2023-02-23T10:44:57.215Z,45.72
2023-02-23T10:47:32.746Z,42.80
2023-02-23T10:49:59.545Z,43.63
2023-02-23T10:52:47.311Z,45.70
2023-02-23T10:55:24.640Z,46.50
2023-02-23T10:58:02.582Z,44.90
2023-02-23T11:00:33.047Z,47.83
2023-02-23T11:03:01.770Z,48.25
2023-02-23T11:05:47.051Z,44.65
2023-02-23T11:08:22.923Z,43.83
2023-02-23T11:11:01.020Z,45.72
2023-02-23T11:13:33.742Z,48.70
2023-02-23T11:16:10.449Z,47.92
2023-02-23T11:18:39.366Z,53.25
2023-02-23T11:21:11.999Z,51.53
2023-02-23T11:23:40.664Z,60.78
2023-02-23T11:26:23.672Z,61.72
2023-02-23T11:28:57.958Z,60.95
2023-02-23T11:31:36.121Z,60.53
2023-02-23T11:34:05.950Z,62.55
2023-02-23T11:36:37.393Z,60.15
2023-02-23T11:39:23.635Z,64.82
2023-02-23T11:42:22.866Z,58.95
2023-02-23T11:45:06.157Z,56.22
2023-02-23T11:47:38.436Z,52.33
2023-02-23T11:50:06.644Z,52.13
2023-02-23T11:52:36.495Z,49.47
2023-02-23T11:55:08.120Z,53.05
2023-02-23T11:57:36.518Z,48.75
2023-02-23T12:00:12.904Z,49.55
2023-02-23T12:03:06.979Z,51.28
2023-02-23T12:05:34.219Z,45.97
2023-02-23T12:08:13.325Z,48.50
2023-02-23T12:10:56.128Z,49.35
2023-02-23T12:13:39.129Z,47.90
2023-02-23T12:16:11.732Z,47.28
2023-02-23T12:18:57.382Z,51.15
2023-02-23T12:21:39.923Z,56.63
2023-02-23T12:24:19.663Z,55.33
2023-02-23T12:26:55.652Z,59.07
2023-02-23T12:30:01.483Z,61.60
2023-02-23T12:32:46.383Z,60.17
2023-02-23T12:35:27.001Z,74.65
2023-02-23T12:38:18.046Z,68.55
2023-02-23T12:40:45.168Z,68.70
2023-02-23T12:43:19.861Z,63.75
2023-02-23T12:45:55.749Z,68.25
2023-02-23T12:48:40.114Z,70.53
2023-02-23T12:51:19.155Z,72.38
2023-02-23T12:53:46.111Z,74.63
2023-02-23T12:56:24.594Z,80.55
2023-02-23T12:59:20.321Z,75.18
2023-02-23T13:01:56.401Z,90.45
2023-02-23T13:04:34.245Z,88.07
2023-02-23T13:07:19.535Z,91.13
2023-02-23T13:10:05.959Z,93.30
2023-02-23T13:12:56.906Z,92.75
2023-02-23T13:15:41.036Z,83.45
2023-02-23T13:18:27.406Z,78.97
2023-02-23T13:21:13.288Z,78.47
2023-02-23T13:24:05.040Z,78.22
2023-02-23T13:26:34.589Z,74.30
2023-02-23T13:29:29.184Z,79.30
2023-02-23T13:31:56.317Z,77.75
2023-02-23T13:34:36.868Z,77.15
2023-02-23T13:37:07.566Z,62.72
2023-02-23T13:39:59.624Z,46.30
2023-02-23T13:42:51.418Z,38.40
2023-02-23T13:45:21.858Z,34.15
2023-02-23T13:48:03.994Z,29.45
2023-02-23T13:50:55.560Z,27.80
2023-02-23T13:53:34.076Z,34.78
2023-02-23T13:56:06.768Z,29.30
2023-02-23T13:58:33.592Z,33.83
2023-02-23T14:01:18.051Z,29.65
2023-02-23T14:03:53.975Z,31.98
2023-02-23T14:06:25.030Z,39.28
2023-02-23T14:08:56.953Z,30.88
2023-02-23T14:11:37.174Z,32.67
2023-02-23T14:14:04.664Z,36.17
2023-02-23T14:16:32.332Z,43.33
2023-02-23T14:19:11.421Z,37.42
2023-02-23T14:21:56.441Z,43.13
2023-02-23T14:24:25.659Z,34.25
2023-02-23T14:27:06.528Z,36.72
2023-02-23T14:30:03.816Z,48.80
2023-02-23T14:32:31.771Z,38.30
2023-02-23T14:35:02.273Z,38.00
2023-02-23T14:37:40.144Z,35.55
2023-02-23T14:40:24.973Z,34.53
2023-02-23T14:42:53.971Z,37.17
2023-02-23T14:45:30.931Z,38.85
2023-02-23T14:48:03.103Z,37.55
2023-02-23T14:50:32.576Z,34.95
2023-02-23T14:53:01.644Z,41.00
2023-02-23T14:55:32.655Z,31.63
2023-02-23T14:57:59.537Z,36.30
2023-02-23T15:00:33.358Z,41.28
2023-02-23T15:03:13.592Z,32.60
2023-02-23T15:05:51.434Z,36.60
2023-02-23T15:08:23.150Z,31.50
2023-02-23T15:11:02.521Z,35.20
2023-02-23T15:16:07.403Z,35.65
2023-02-23T15:18:40.484Z,27.98
2023-02-23T15:21:17.784Z,41.22
2023-02-23T15:23:46.360Z,37.88
2023-02-23T15:26:34.999Z,32.03
2023-02-23T15:29:10.605Z,31.75
2023-02-23T15:31:41.286Z,36.22
2023-02-23T15:34:11.179Z,32.55
2023-02-23T15:36:41.374Z,32.65
2023-02-23T15:39:14.715Z,32.42
2023-02-23T15:41:44.599Z,35.88
2023-02-23T15:44:16.425Z,30.63
2023-02-23T15:46:45.952Z,32.78
2023-02-23T15:49:19.474Z,27.77
2023-02-23T15:51:52.112Z,32.25
2023-02-23T15:54:21.386Z,31.88
2023-02-23T15:56:50.509Z,35.75
2023-02-23T15:59:26.488Z,35.70
2023-02-23T16:01:57.191Z,31.60
2023-02-23T16:04:30.169Z,29.02
2023-02-23T16:07:16.352Z,29.55
2023-02-23T16:09:55.732Z,47.75
2023-02-23T16:12:33.202Z,45.00
2023-02-23T16:15:01.877Z,27.88
2023-02-23T16:17:28.529Z,33.38
2023-02-23T16:20:11.404Z,30.63
2023-02-23T16:22:40.061Z,30.30
2023-02-23T16:25:12.500Z,25.23
2023-02-23T16:27:39.505Z,28.05
2023-02-23T16:30:20.124Z,29.15
2023-02-23T16:32:47.035Z,26.48
2023-02-23T16:35:18.881Z,30.88
2023-02-23T16:38:16.262Z,28.95
2023-02-23T16:40:43.028Z,23.23
2023-02-23T16:43:10.401Z,26.88
2023-02-23T16:45:38.695Z,28.63
2023-02-23T16:48:11.573Z,28.42
2023-02-23T16:50:40.792Z,27.63
2023-02-23T16:53:10.813Z,27.58
2023-02-23T16:55:40.832Z,30.85
2023-02-23T16:58:12.079Z,29.08
2023-02-23T17:00:38.962Z,25.70
2023-02-23T17:03:06.752Z,26.70
2023-02-23T17:05:33.770Z,25.80
2023-02-23T17:08:00.681Z,27.98
2023-02-23T17:10:33.216Z,24.02
2023-02-23T17:13:06.188Z,25.27
2023-02-23T17:15:38.782Z,26.30
2023-02-23T17:18:06.003Z,24.63
2023-02-23T17:20:33.593Z,23.35
2023-02-23T17:23:02.598Z,27.67
2023-02-23T17:25:32.790Z,29.77
2023-02-23T17:28:00.632Z,25.67
2023-02-23T17:30:28.772Z,22.98
2023-02-23T17:32:57.792Z,26.98
2023-02-23T17:35:25.975Z,24.55
2023-02-23T17:37:53.137Z,23.77
2023-02-23T17:40:29.264Z,29.58
2023-02-23T17:42:58.431Z,29.20
2023-02-23T17:45:26.120Z,26.30
2023-02-23T17:47:53.132Z,24.75
2023-02-23T17:50:21.684Z,24.83
2023-02-23T17:52:50.115Z,21.27
2023-02-23T17:55:18.619Z,20.90
2023-02-23T17:57:46.128Z,24.50
2023-02-23T18:00:15.917Z,23.67
2023-02-23T18:02:44.836Z,21.73
2023-02-23T18:05:14.281Z,21.83
2023-02-23T18:07:41.453Z,18.00
2023-02-23T18:10:09.194Z,26.50
2023-02-23T18:12:36.123Z,23.10
2023-02-23T18:15:02.874Z,18.80
2023-02-23T18:17:32.586Z,21.17
2023-02-23T18:20:00.486Z,20.43
2023-02-23T18:22:27.215Z,24.77
2023-02-23T18:24:54.558Z,23.42
2023-02-23T18:27:22.115Z,22.50
2023-02-23T18:29:48.741Z,20.95
2023-02-23T18:32:15.722Z,26.48
2023-02-23T18:34:42.635Z,25.08
2023-02-23T18:37:09.956Z,22.02
2023-02-23T18:39:37.172Z,22.17
2023-02-23T18:42:04.513Z,22.02
2023-02-23T18:44:32.959Z,24.10
2023-02-23T18:47:02.577Z,24.00
2023-02-23T18:49:29.358Z,25.92
2023-02-23T18:51:56.054Z,23.80
2023-02-23T18:54:26.093Z,21.58
2023-02-23T18:56:53.116Z,19.50
2023-02-23T18:59:19.807Z,19.95
2023-02-23T19:01:48.057Z,19.05
2023-02-23T19:04:15.511Z,22.38
2023-02-23T19:06:44.801Z,25.73
2023-02-23T19:09:14.626Z,22.20
2023-02-23T19:11:42.850Z,24.98
2023-02-23T19:14:16.172Z,21.67
2023-02-23T19:16:43.665Z,20.73
2023-02-23T19:19:10.881Z,24.38
2023-02-23T19:21:37.923Z,19.25
2023-02-23T19:24:06.153Z,24.80
2023-02-23T19:26:34.071Z,17.30
2023-02-23T19:29:01.192Z,22.70
2023-02-23T19:31:28.557Z,23.35
2023-02-23T19:33:57.264Z,22.63
2023-02-23T19:36:30.024Z,18.05
2023-02-23T19:39:06.169Z,20.38
2023-02-23T19:41:34.454Z,22.63
2023-02-23T19:44:01.676Z,16.52
2023-02-23T19:46:29.149Z,20.65
2023-02-23T19:48:57.196Z,20.45
2023-02-23T19:51:24.432Z,23.63
2023-02-23T19:53:54.555Z,24.63
2023-02-23T19:56:23.154Z,18.77
2023-02-23T19:58:49.966Z,23.35
2023-02-23T20:01:22.749Z,23.33
2023-02-23T20:03:56.952Z,24.20
2023-02-23T20:06:25.248Z,20.33
2023-02-23T20:08:55.270Z,23.27
2023-02-23T20:11:23.442Z,26.30
2023-02-23T20:13:53.714Z,24.73
2023-02-23T20:16:21.549Z,23.55
2023-02-23T20:18:48.460Z,22.33
2023-02-23T20:21:21.196Z,21.35
2023-02-23T20:23:48.337Z,27.35
2023-02-23T20:26:22.077Z,20.67
2023-02-23T20:28:50.123Z,21.50
2023-02-23T20:31:28.565Z,22.35
2023-02-23T20:33:57.462Z,21.65
2023-02-23T20:36:25.529Z,19.48
2023-02-23T20:38:52.895Z,19.58
2023-02-23T20:41:20.641Z,19.27
2023-02-23T20:43:47.776Z,21.55
2023-02-23T20:46:16.757Z,20.45
2023-02-23T20:48:43.887Z,17.67
2023-02-23T20:51:15.205Z,21.45
2023-02-23T20:53:42.307Z,19.88
2023-02-23T20:56:10.128Z,23.45
2023-02-23T20:58:37.095Z,22.67
2023-02-23T21:01:06.815Z,19.67
2023-02-23T21:03:35.665Z,20.27
2023-02-23T21:06:02.559Z,19.23
2023-02-23T21:08:30.594Z,19.48
2023-02-23T21:10:59.261Z,21.73
2023-02-23T21:13:28.226Z,26.52
2023-02-23T21:16:00.936Z,17.77
2023-02-23T21:18:28.749Z,21.67
2023-02-23T21:20:56.872Z,19.90
2023-02-23T21:23:25.100Z,19.65
2023-02-23T21:25:54.107Z,19.98
2023-02-23T21:28:20.984Z,19.88
2023-02-23T21:30:48.190Z,23.98
2023-02-23T21:33:15.152Z,19.55
2023-02-23T21:35:41.818Z,19.90
2023-02-23T21:38:10.725Z,17.15
2023-02-23T21:40:42.275Z,18.67
2023-02-23T21:43:09.330Z,18.80
2023-02-23T21:45:39.323Z,18.52
2023-02-23T21:48:06.048Z,25.77
2023-02-23T21:50:32.769Z,20.08
2023-02-23T21:53:00.052Z,17.55
2023-02-23T21:55:26.900Z,20.05
2023-02-23T21:57:53.641Z,18.55
2023-02-23T22:00:21.902Z,17.70
2023-02-23T22:02:50.138Z,17.08
2023-02-23T22:05:18.997Z,21.00
2023-02-23T22:07:51.535Z,16.25
2023-02-23T22:10:21.722Z,16.50
2023-02-23T22:12:56.333Z,20.38
2023-02-23T22:15:27.748Z,12.98
2023-02-23T22:17:55.812Z,14.73
2023-02-23T22:20:22.836Z,13.25
2023-02-23T22:22:52.620Z,15.68
2023-02-23T22:25:20.001Z,14.43
2023-02-23T22:27:46.945Z,17.77
2023-02-23T22:30:15.067Z,15.13
2023-02-23T22:32:42.604Z,15.38
2023-02-23T22:35:10.456Z,14.75
2023-02-23T22:37:39.212Z,16.70
2023-02-23T22:40:17.132Z,15.75
2023-02-23T22:42:48.612Z,18.13
2023-02-23T22:45:16.298Z,18.90
2023-02-23T22:47:43.434Z,19.02
2023-02-23T22:50:12.252Z,14.10
2023-02-23T22:52:43.994Z,18.05
2023-02-23T22:55:11.412Z,17.23
2023-02-23T22:57:39.917Z,14.70
2023-02-23T23:00:12.680Z,21.10
2023-02-23T23:02:39.601Z,15.70
2023-02-23T23:05:07.209Z,17.90
2023-02-23T23:07:34.540Z,17.88
2023-02-23T23:10:05.504Z,17.90
2023-02-23T23:12:34.500Z,16.10
2023-02-23T23:15:03.031Z,21.30
2023-02-23T23:17:31.157Z,15.02
2023-02-23T23:20:05.233Z,13.95
2023-02-23T23:22:35.518Z,16.20
2023-02-23T23:25:02.376Z,15.57
2023-02-23T23:27:29.184Z,17.02
2023-02-23T23:29:56.001Z,16.42
2023-02-23T23:32:27.811Z,15.73
2023-02-23T23:34:58.901Z,16.23
2023-02-23T23:37:29.233Z,17.55
2023-02-23T23:40:03.844Z,16.75
2023-02-23T23:42:31.786Z,13.82
2023-02-23T23:44:58.440Z,15.93
2023-02-23T23:47:26.073Z,13.18
2023-02-23T23:49:53.568Z,17.67
2023-02-23T23:52:21.102Z,14.65
2023-02-23T23:54:48.469Z,15.02
2023-02-23T23:57:15.267Z,13.43
2023-02-23T23:59:46.208Z,16.60
